sensor_id;sensor_type;location;lat;lon;timestamp;P1;durP1;ratioP1;P2;durP2;ratioP2
11955;SDS011;6038;52.276;10.530;2023-08-07T00:02:16;1113.10;;;999.90;;
11955;SDS011;6038;52.276;10.530;2023-08-07T00:04:42;1143.43;;;999.90;;
11955;SDS011;6038;52.276;10.530;2023-08-07T00:07:08;1124.83;;;999.90;;
11955;SDS011;6038;52.276;10.530;2023-08-07T00:09:34;1060.53;;;978.30;;
11955;SDS011;6038;52.276;10.530;2023-08-07T00:12:00;1064.03;;;984.03;;
11955;SDS011;6038;52.276;10.530;2023-08-07T00:14:26;970.80;;;895.17;;
11955;SDS011;6038;52.276;10.530;2023-08-07T00:16:52;1038.27;;;957.83;;
11955;SDS011;6038;52.276;10.530;2023-08-07T00:19:18;1064.80;;;980.47;;
11955;SDS011;6038;52.276;10.530;2023-08-07T00:21:44;1007.77;;;926.67;;
11955;SDS011;6038;52.276;10.530;2023-08-07T00:24:10;1088.97;;;999.40;;
11955;SDS011;6038;52.276;10.530;2023-08-07T00:26:36;1103.63;;;999.90;;
11955;SDS011;6038;52.276;10.530;2023-08-07T00:29:02;1130.27;;;999.90;;
11955;SDS011;6038;52.276;10.530;2023-08-07T00:31:27;1092.07;;;998.53;;
11955;SDS011;6038;52.276;10.530;2023-08-07T00:33:56;1048.17;;;966.00;;
11955;SDS011;6038;52.276;10.530;2023-08-07T00:36:22;1035.87;;;953.07;;
11955;SDS011;6038;52.276;10.530;2023-08-07T00:38:49;841.37;;;771.13;;
11955;SDS011;6038;52.276;10.530;2023-08-07T00:41:16;971.73;;;894.53;;
11955;SDS011;6038;52.276;10.530;2023-08-07T00:43:43;847.30;;;777.33;;
11955;SDS011;6038;52.276;10.530;2023-08-07T00:46:09;947.63;;;872.60;;
11955;SDS011;6038;52.276;10.530;2023-08-07T00:48:35;815.40;;;746.60;;
11955;SDS011;6038;52.276;10.530;2023-08-07T00:51:01;964.57;;;887.80;;
11955;SDS011;6038;52.276;10.530;2023-08-07T00:53:29;1034.73;;;954.17;;
11955;SDS011;6038;52.276;10.530;2023-08-07T00:55:56;814.77;;;745.83;;
11955;SDS011;6038;52.276;10.530;2023-08-07T00:58:23;720.53;;;650.53;;
11955;SDS011;6038;52.276;10.530;2023-08-07T01:00:49;842.00;;;770.93;;
11955;SDS011;6038;52.276;10.530;2023-08-07T01:03:15;773.10;;;703.43;;
11955;SDS011;6038;52.276;10.530;2023-08-07T01:05:41;973.37;;;896.87;;
11955;SDS011;6038;52.276;10.530;2023-08-07T01:08:07;822.20;;;752.40;;
11955;SDS011;6038;52.276;10.530;2023-08-07T01:13:10;1321.47;;;999.90;;
11955;SDS011;6038;52.276;10.530;2023-08-07T01:15:39;999.70;;;918.83;;
11955;SDS011;6038;52.276;10.530;2023-08-07T01:18:06;1033.20;;;948.97;;
11955;SDS011;6038;52.276;10.530;2023-08-07T01:20:33;1023.37;;;941.97;;
11955;SDS011;6038;52.276;10.530;2023-08-07T01:22:59;792.97;;;724.10;;
11955;SDS011;6038;52.276;10.530;2023-08-07T01:25:25;868.03;;;795.90;;
11955;SDS011;6038;52.276;10.530;2023-08-07T01:28:07;895.03;;;818.83;;
11955;SDS011;6038;52.276;10.530;2023-08-07T01:30:38;788.47;;;718.40;;
11955;SDS011;6038;52.276;10.530;2023-08-07T01:35:40;971.70;;;890.70;;
11955;SDS011;6038;52.276;10.530;2023-08-07T01:38:07;999.97;;;915.87;;
11955;SDS011;6038;52.276;10.530;2023-08-07T01:40:34;1019.73;;;933.83;;
11955;SDS011;6038;52.276;10.530;2023-08-07T01:43:01;983.17;;;899.00;;
11955;SDS011;6038;52.276;10.530;2023-08-07T01:45:28;1010.17;;;924.70;;
11955;SDS011;6038;52.276;10.530;2023-08-07T01:47:54;1002.03;;;917.43;;
11955;SDS011;6038;52.276;10.530;2023-08-07T01:50:21;1018.03;;;931.03;;
11955;SDS011;6038;52.276;10.530;2023-08-07T01:52:47;1026.23;;;939.67;;
11955;SDS011;6038;52.276;10.530;2023-08-07T01:55:16;1002.00;;;916.97;;
11955;SDS011;6038;52.276;10.530;2023-08-07T01:57:43;1024.07;;;938.03;;
11955;SDS011;6038;52.276;10.530;2023-08-07T02:00:09;988.83;;;905.00;;
11955;SDS011;6038;52.276;10.530;2023-08-07T02:02:35;1020.17;;;933.87;;
11955;SDS011;6038;52.276;10.530;2023-08-07T02:05:01;1039.93;;;953.43;;
11955;SDS011;6038;52.276;10.530;2023-08-07T02:07:27;1021.73;;;937.43;;
11955;SDS011;6038;52.276;10.530;2023-08-07T02:09:53;1015.23;;;930.47;;
11955;SDS011;6038;52.276;10.530;2023-08-07T02:12:19;1012.73;;;927.13;;
11955;SDS011;6038;52.276;10.530;2023-08-07T02:14:45;536.87;;;144.03;;
11955;SDS011;6038;52.276;10.530;2023-08-07T02:17:12;538.50;;;206.13;;
11955;SDS011;6038;52.276;10.530;2023-08-07T02:19:37;958.80;;;877.50;;
11955;SDS011;6038;52.276;10.530;2023-08-07T02:22:04;1049.27;;;960.50;;
11955;SDS011;6038;52.276;10.530;2023-08-07T02:24:30;1065.87;;;976.90;;
11955;SDS011;6038;52.276;10.530;2023-08-07T02:26:56;1067.00;;;976.83;;
11955;SDS011;6038;52.276;10.530;2023-08-07T02:29:22;1056.60;;;968.17;;
11955;SDS011;6038;52.276;10.530;2023-08-07T02:31:48;962.27;;;879.60;;
11955;SDS011;6038;52.276;10.530;2023-08-07T02:34:14;963.57;;;879.77;;
11955;SDS011;6038;52.276;10.530;2023-08-07T02:36:40;961.07;;;878.90;;
11955;SDS011;6038;52.276;10.530;2023-08-07T02:39:06;960.87;;;878.57;;
11955;SDS011;6038;52.276;10.530;2023-08-07T02:41:32;960.03;;;877.63;;
11955;SDS011;6038;52.276;10.530;2023-08-07T02:43:58;963.73;;;881.20;;
11955;SDS011;6038;52.276;10.530;2023-08-07T02:46:24;980.33;;;896.80;;
11955;SDS011;6038;52.276;10.530;2023-08-07T02:48:50;961.20;;;878.87;;
11955;SDS011;6038;52.276;10.530;2023-08-07T02:51:18;966.97;;;883.87;;
11955;SDS011;6038;52.276;10.530;2023-08-07T02:53:44;950.97;;;868.03;;
11955;SDS011;6038;52.276;10.530;2023-08-07T02:56:10;959.60;;;877.07;;
11955;SDS011;6038;52.276;10.530;2023-08-07T02:58:36;972.07;;;888.80;;
11955;SDS011;6038;52.276;10.530;2023-08-07T03:01:03;965.50;;;882.70;;
11955;SDS011;6038;52.276;10.530;2023-08-07T03:03:31;946.60;;;864.03;;
11955;SDS011;6038;52.276;10.530;2023-08-07T03:05:57;978.13;;;894.50;;
11955;SDS011;6038;52.276;10.530;2023-08-07T03:08:23;964.63;;;881.67;;
11955;SDS011;6038;52.276;10.530;2023-08-07T03:10:49;954.50;;;871.00;;
11955;SDS011;6038;52.276;10.530;2023-08-07T03:13:15;962.67;;;878.93;;
11955;SDS011;6038;52.276;10.530;2023-08-07T03:15:41;967.90;;;884.90;;
11955;SDS011;6038;52.276;10.530;2023-08-07T03:18:07;956.97;;;873.10;;
11955;SDS011;6038;52.276;10.530;2023-08-07T03:20:35;960.73;;;877.57;;
11955;SDS011;6038;52.276;10.530;2023-08-07T03:23:01;964.70;;;881.50;;
11955;SDS011;6038;52.276;10.530;2023-08-07T03:25:27;964.73;;;880.63;;
11955;SDS011;6038;52.276;10.530;2023-08-07T03:27:53;968.97;;;885.63;;
11955;SDS011;6038;52.276;10.530;2023-08-07T03:30:19;943.27;;;860.70;;
11955;SDS011;6038;52.276;10.530;2023-08-07T03:32:45;875.17;;;796.10;;
11955;SDS011;6038;52.276;10.530;2023-08-07T03:35:11;955.67;;;873.27;;
11955;SDS011;6038;52.276;10.530;2023-08-07T03:37:37;944.27;;;862.60;;
11955;SDS011;6038;52.276;10.530;2023-08-07T03:40:03;982.13;;;897.00;;
11955;SDS011;6038;52.276;10.530;2023-08-07T03:42:29;947.97;;;865.33;;
11955;SDS011;6038;52.276;10.530;2023-08-07T03:44:55;953.93;;;871.50;;
11955;SDS011;6038;52.276;10.530;2023-08-07T03:47:23;966.30;;;883.40;;
11955;SDS011;6038;52.276;10.530;2023-08-07T03:49:49;956.37;;;873.13;;
11955;SDS011;6038;52.276;10.530;2023-08-07T03:52:15;947.07;;;864.57;;
11955;SDS011;6038;52.276;10.530;2023-08-07T03:54:42;950.17;;;868.17;;
11955;SDS011;6038;52.276;10.530;2023-08-07T03:57:08;954.93;;;873.13;;
11955;SDS011;6038;52.276;10.530;2023-08-07T03:59:35;939.37;;;857.97;;
11955;SDS011;6038;52.276;10.530;2023-08-07T04:02:02;932.50;;;851.30;;
11955;SDS011;6038;52.276;10.530;2023-08-07T04:04:28;941.57;;;860.47;;
11955;SDS011;6038;52.276;10.530;2023-08-07T04:06:54;922.10;;;840.60;;
11955;SDS011;6038;52.276;10.530;2023-08-07T04:09:19;924.23;;;842.63;;
11955;SDS011;6038;52.276;10.530;2023-08-07T04:11:45;930.43;;;848.43;;
11955;SDS011;6038;52.276;10.530;2023-08-07T04:14:12;926.80;;;846.03;;
11955;SDS011;6038;52.276;10.530;2023-08-07T04:16:38;960.57;;;877.17;;
11955;SDS011;6038;52.276;10.530;2023-08-07T04:19:04;927.87;;;846.27;;
11955;SDS011;6038;52.276;10.530;2023-08-07T04:21:32;967.10;;;883.77;;
11955;SDS011;6038;52.276;10.530;2023-08-07T04:23:58;950.80;;;868.77;;
11955;SDS011;6038;52.276;10.530;2023-08-07T04:26:35;942.27;;;860.63;;
11955;SDS011;6038;52.276;10.530;2023-08-07T04:29:01;944.13;;;862.60;;
11955;SDS011;6038;52.276;10.530;2023-08-07T04:31:27;951.23;;;869.37;;
11955;SDS011;6038;52.276;10.530;2023-08-07T04:33:55;925.87;;;844.17;;
11955;SDS011;6038;52.276;10.530;2023-08-07T04:36:22;940.83;;;859.73;;
11955;SDS011;6038;52.276;10.530;2023-08-07T04:38:48;941.37;;;860.20;;
11955;SDS011;6038;52.276;10.530;2023-08-07T04:41:13;957.10;;;875.03;;
11955;SDS011;6038;52.276;10.530;2023-08-07T04:43:39;937.90;;;857.10;;
11955;SDS011;6038;52.276;10.530;2023-08-07T04:46:07;926.50;;;844.67;;
11955;SDS011;6038;52.276;10.530;2023-08-07T04:48:34;942.67;;;861.03;;
11955;SDS011;6038;52.276;10.530;2023-08-07T04:51:00;936.83;;;855.60;;
11955;SDS011;6038;52.276;10.530;2023-08-07T04:53:26;941.73;;;859.50;;
11955;SDS011;6038;52.276;10.530;2023-08-07T04:55:52;939.70;;;857.40;;
11955;SDS011;6038;52.276;10.530;2023-08-07T04:58:18;937.27;;;856.20;;
11955;SDS011;6038;52.276;10.530;2023-08-07T05:00:44;918.03;;;836.77;;
11955;SDS011;6038;52.276;10.530;2023-08-07T05:03:10;932.17;;;850.33;;
11955;SDS011;6038;52.276;10.530;2023-08-07T05:05:36;927.03;;;846.53;;
11955;SDS011;6038;52.276;10.530;2023-08-07T05:08:02;939.33;;;857.90;;
11955;SDS011;6038;52.276;10.530;2023-08-07T05:10:28;915.70;;;834.83;;
11955;SDS011;6038;52.276;10.530;2023-08-07T05:12:54;932.00;;;850.00;;
11955;SDS011;6038;52.276;10.530;2023-08-07T05:15:24;909.87;;;829.17;;
11955;SDS011;6038;52.276;10.530;2023-08-07T05:17:50;915.77;;;835.77;;
11955;SDS011;6038;52.276;10.530;2023-08-07T05:20:16;921.40;;;840.93;;
11955;SDS011;6038;52.276;10.530;2023-08-07T05:22:43;919.17;;;838.97;;
11955;SDS011;6038;52.276;10.530;2023-08-07T05:25:09;935.73;;;854.33;;
11955;SDS011;6038;52.276;10.530;2023-08-07T05:27:36;922.70;;;841.27;;
11955;SDS011;6038;52.276;10.530;2023-08-07T05:30:02;928.97;;;848.57;;
11955;SDS011;6038;52.276;10.530;2023-08-07T05:32:29;907.10;;;826.43;;
11955;SDS011;6038;52.276;10.530;2023-08-07T05:34:55;919.20;;;837.73;;
11955;SDS011;6038;52.276;10.530;2023-08-07T05:37:21;926.37;;;845.80;;
11955;SDS011;6038;52.276;10.530;2023-08-07T05:39:47;918.50;;;837.17;;
11955;SDS011;6038;52.276;10.530;2023-08-07T05:42:13;929.60;;;848.30;;
11955;SDS011;6038;52.276;10.530;2023-08-07T05:44:39;914.23;;;833.00;;
11955;SDS011;6038;52.276;10.530;2023-08-07T05:47:05;929.57;;;848.33;;
11955;SDS011;6038;52.276;10.530;2023-08-07T05:49:31;925.27;;;844.23;;
11955;SDS011;6038;52.276;10.530;2023-08-07T05:51:57;915.77;;;835.57;;
11955;SDS011;6038;52.276;10.530;2023-08-07T05:54:23;938.27;;;857.27;;
11955;SDS011;6038;52.276;10.530;2023-08-07T05:56:49;923.33;;;841.97;;
11955;SDS011;6038;52.276;10.530;2023-08-07T05:59:15;932.00;;;851.10;;
11955;SDS011;6038;52.276;10.530;2023-08-07T06:01:41;927.00;;;846.07;;
11955;SDS011;6038;52.276;10.530;2023-08-07T06:04:07;919.27;;;837.93;;
11955;SDS011;6038;52.276;10.530;2023-08-07T06:06:33;918.80;;;837.37;;
11955;SDS011;6038;52.276;10.530;2023-08-07T06:09:01;904.67;;;823.87;;
11955;SDS011;6038;52.276;10.530;2023-08-07T06:11:28;905.27;;;824.90;;
11955;SDS011;6038;52.276;10.530;2023-08-07T06:13:54;908.53;;;828.43;;
11955;SDS011;6038;52.276;10.530;2023-08-07T06:16:20;936.97;;;855.30;;
11955;SDS011;6038;52.276;10.530;2023-08-07T06:18:46;922.60;;;841.13;;
11955;SDS011;6038;52.276;10.530;2023-08-07T06:21:12;913.83;;;833.60;;
11955;SDS011;6038;52.276;10.530;2023-08-07T06:23:38;906.47;;;825.93;;
11955;SDS011;6038;52.276;10.530;2023-08-07T06:26:04;897.50;;;817.10;;
11955;SDS011;6038;52.276;10.530;2023-08-07T06:28:33;908.00;;;826.90;;
11955;SDS011;6038;52.276;10.530;2023-08-07T06:31:06;910.57;;;830.33;;
11955;SDS011;6038;52.276;10.530;2023-08-07T06:33:32;913.50;;;833.37;;
11955;SDS011;6038;52.276;10.530;2023-08-07T06:35:59;921.50;;;840.87;;
11955;SDS011;6038;52.276;10.530;2023-08-07T06:38:25;912.97;;;833.03;;
11955;SDS011;6038;52.276;10.530;2023-08-07T06:40:51;911.57;;;831.83;;
11955;SDS011;6038;52.276;10.530;2023-08-07T06:43:17;892.67;;;812.77;;
11955;SDS011;6038;52.276;10.530;2023-08-07T06:45:43;926.40;;;844.83;;
11955;SDS011;6038;52.276;10.530;2023-08-07T06:48:10;915.63;;;835.93;;
11955;SDS011;6038;52.276;10.530;2023-08-07T06:50:36;912.00;;;832.43;;
11955;SDS011;6038;52.276;10.530;2023-08-07T06:53:02;893.33;;;814.33;;
11955;SDS011;6038;52.276;10.530;2023-08-07T06:55:28;888.20;;;808.83;;
11955;SDS011;6038;52.276;10.530;2023-08-07T06:57:54;909.93;;;830.47;;
11955;SDS011;6038;52.276;10.530;2023-08-07T07:00:20;902.77;;;823.73;;
11955;SDS011;6038;52.276;10.530;2023-08-07T07:02:46;908.33;;;829.13;;
11955;SDS011;6038;52.276;10.530;2023-08-07T07:05:11;907.10;;;827.43;;
11955;SDS011;6038;52.276;10.530;2023-08-07T07:07:38;935.43;;;854.47;;
11955;SDS011;6038;52.276;10.530;2023-08-07T07:10:04;933.07;;;852.43;;
11955;SDS011;6038;52.276;10.530;2023-08-07T07:12:30;938.30;;;857.20;;
11955;SDS011;6038;52.276;10.530;2023-08-07T07:14:56;931.33;;;850.73;;
11955;SDS011;6038;52.276;10.530;2023-08-07T07:17:22;936.77;;;855.57;;
11955;SDS011;6038;52.276;10.530;2023-08-07T07:19:48;953.83;;;871.97;;
11955;SDS011;6038;52.276;10.530;2023-08-07T07:22:14;933.17;;;851.63;;
11955;SDS011;6038;52.276;10.530;2023-08-07T07:24:40;948.63;;;866.47;;
11955;SDS011;6038;52.276;10.530;2023-08-07T07:27:06;960.10;;;877.43;;
11955;SDS011;6038;52.276;10.530;2023-08-07T07:29:32;965.67;;;883.20;;
11955;SDS011;6038;52.276;10.530;2023-08-07T07:31:58;960.10;;;876.70;;
11955;SDS011;6038;52.276;10.530;2023-08-07T07:34:24;964.20;;;881.17;;
11955;SDS011;6038;52.276;10.530;2023-08-07T07:36:50;974.07;;;890.77;;
11955;SDS011;6038;52.276;10.530;2023-08-07T07:39:18;950.37;;;867.13;;
11955;SDS011;6038;52.276;10.530;2023-08-07T07:41:44;961.97;;;879.13;;
11955;SDS011;6038;52.276;10.530;2023-08-07T07:44:10;949.63;;;867.97;;
11955;SDS011;6038;52.276;10.530;2023-08-07T07:46:36;980.97;;;896.87;;
11955;SDS011;6038;52.276;10.530;2023-08-07T07:49:02;979.50;;;895.30;;
11955;SDS011;6038;52.276;10.530;2023-08-07T07:51:30;998.43;;;913.13;;
11955;SDS011;6038;52.276;10.530;2023-08-07T07:53:56;996.00;;;910.73;;
11955;SDS011;6038;52.276;10.530;2023-08-07T07:56:22;994.60;;;909.20;;
11955;SDS011;6038;52.276;10.530;2023-08-07T07:58:48;1018.33;;;932.40;;
11955;SDS011;6038;52.276;10.530;2023-08-07T08:01:14;1015.30;;;928.93;;
11955;SDS011;6038;52.276;10.530;2023-08-07T08:03:40;1009.13;;;922.53;;
11955;SDS011;6038;52.276;10.530;2023-08-07T08:06:08;1013.37;;;926.80;;
11955;SDS011;6038;52.276;10.530;2023-08-07T08:08:34;1015.40;;;929.80;;
11955;SDS011;6038;52.276;10.530;2023-08-07T08:11:00;1008.70;;;922.90;;
11955;SDS011;6038;52.276;10.530;2023-08-07T08:13:26;1015.27;;;928.33;;
11955;SDS011;6038;52.276;10.530;2023-08-07T08:15:52;1030.87;;;942.87;;
11955;SDS011;6038;52.276;10.530;2023-08-07T08:18:18;1035.83;;;948.07;;
11955;SDS011;6038;52.276;10.530;2023-08-07T08:20:44;1053.40;;;964.50;;
11955;SDS011;6038;52.276;10.530;2023-08-07T08:23:10;1054.47;;;964.87;;
11955;SDS011;6038;52.276;10.530;2023-08-07T08:25:36;1044.00;;;954.93;;
11955;SDS011;6038;52.276;10.530;2023-08-07T08:28:03;1059.53;;;969.23;;
11955;SDS011;6038;52.276;10.530;2023-08-07T08:30:29;1067.83;;;977.17;;
11955;SDS011;6038;52.276;10.530;2023-08-07T08:32:55;1050.00;;;960.77;;
11955;SDS011;6038;52.276;10.530;2023-08-07T08:35:21;1070.10;;;979.67;;
11955;SDS011;6038;52.276;10.530;2023-08-07T08:37:47;1085.77;;;993.87;;
11955;SDS011;6038;52.276;10.530;2023-08-07T08:40:13;1111.97;;;999.90;;
11955;SDS011;6038;52.276;10.530;2023-08-07T08:42:44;1099.20;;;999.90;;
11955;SDS011;6038;52.276;10.530;2023-08-07T08:45:11;1114.67;;;999.90;;
11955;SDS011;6038;52.276;10.530;2023-08-07T08:47:38;1089.20;;;996.90;;
11955;SDS011;6038;52.276;10.530;2023-08-07T08:50:06;1097.90;;;999.90;;
11955;SDS011;6038;52.276;10.530;2023-08-07T08:52:33;1108.10;;;999.90;;
11955;SDS011;6038;52.276;10.530;2023-08-07T08:54:59;1128.50;;;999.90;;
11955;SDS011;6038;52.276;10.530;2023-08-07T08:57:26;1116.03;;;999.90;;
11955;SDS011;6038;52.276;10.530;2023-08-07T08:59:52;1141.20;;;999.90;;
11955;SDS011;6038;52.276;10.530;2023-08-07T09:02:19;1169.50;;;999.90;;
11955;SDS011;6038;52.276;10.530;2023-08-07T09:04:45;1162.07;;;999.90;;
11955;SDS011;6038;52.276;10.530;2023-08-07T09:07:12;1176.97;;;999.90;;
11955;SDS011;6038;52.276;10.530;2023-08-07T09:09:39;1181.97;;;999.90;;
11955;SDS011;6038;52.276;10.530;2023-08-07T09:12:06;1176.00;;;999.90;;
11955;SDS011;6038;52.276;10.530;2023-08-07T09:14:33;1154.33;;;999.90;;
11955;SDS011;6038;52.276;10.530;2023-08-07T09:17:04;1163.30;;;999.90;;
11955;SDS011;6038;52.276;10.530;2023-08-07T09:19:33;1163.43;;;999.90;;
11955;SDS011;6038;52.276;10.530;2023-08-07T09:21:59;1174.10;;;999.90;;
11955;SDS011;6038;52.276;10.530;2023-08-07T09:24:25;1117.07;;;999.90;;
11955;SDS011;6038;52.276;10.530;2023-08-07T09:26:51;1163.00;;;999.90;;
11955;SDS011;6038;52.276;10.530;2023-08-07T09:29:20;1174.70;;;999.90;;
11955;SDS011;6038;52.276;10.530;2023-08-07T09:31:46;1146.37;;;999.90;;
11955;SDS011;6038;52.276;10.530;2023-08-07T09:34:12;1181.83;;;999.90;;
11955;SDS011;6038;52.276;10.530;2023-08-07T09:36:41;1143.60;;;999.90;;
11955;SDS011;6038;52.276;10.530;2023-08-07T09:39:07;1122.10;;;999.90;;
11955;SDS011;6038;52.276;10.530;2023-08-07T09:41:35;1092.27;;;998.57;;
11955;SDS011;6038;52.276;10.530;2023-08-07T09:44:07;1101.70;;;999.90;;
11955;SDS011;6038;52.276;10.530;2023-08-07T09:46:40;1098.80;;;999.90;;
11955;SDS011;6038;52.276;10.530;2023-08-07T09:49:06;1066.03;;;976.97;;
11955;SDS011;6038;52.276;10.530;2023-08-07T09:51:42;1075.77;;;986.33;;
11955;SDS011;6038;52.276;10.530;2023-08-07T09:54:08;1056.30;;;967.97;;
11955;SDS011;6038;52.276;10.530;2023-08-07T09:56:35;1041.20;;;953.47;;
11955;SDS011;6038;52.276;10.530;2023-08-07T09:59:01;1034.30;;;947.07;;
11955;SDS011;6038;52.276;10.530;2023-08-07T10:01:27;980.17;;;897.23;;
11955;SDS011;6038;52.276;10.530;2023-08-07T10:03:53;961.90;;;879.73;;
11955;SDS011;6038;52.276;10.530;2023-08-07T10:06:20;936.50;;;854.70;;
11955;SDS011;6038;52.276;10.530;2023-08-07T10:08:46;971.90;;;889.17;;
11955;SDS011;6038;52.276;10.530;2023-08-07T10:11:12;969.20;;;885.30;;
11955;SDS011;6038;52.276;10.530;2023-08-07T10:13:39;1036.50;;;949.17;;
11955;SDS011;6038;52.276;10.530;2023-08-07T10:16:06;1020.80;;;933.57;;
11955;SDS011;6038;52.276;10.530;2023-08-07T10:18:33;1036.47;;;948.47;;
11955;SDS011;6038;52.276;10.530;2023-08-07T10:20:59;1032.07;;;945.80;;
11955;SDS011;6038;52.276;10.530;2023-08-07T10:23:26;1041.67;;;956.73;;
11955;SDS011;6038;52.276;10.530;2023-08-07T10:25:52;1069.87;;;982.77;;
11955;SDS011;6038;52.276;10.530;2023-08-07T10:28:19;815.00;;;743.87;;
11955;SDS011;6038;52.276;10.530;2023-08-07T10:30:46;930.30;;;855.83;;
11955;SDS011;6038;52.276;10.530;2023-08-07T10:33:13;780.70;;;712.77;;
11955;SDS011;6038;52.276;10.530;2023-08-07T10:35:46;835.43;;;766.03;;
11955;SDS011;6038;52.276;10.530;2023-08-07T10:38:16;721.77;;;655.80;;
11955;SDS011;6038;52.276;10.530;2023-08-07T10:41:05;800.37;;;732.77;;
11955;SDS011;6038;52.276;10.530;2023-08-07T10:43:36;1008.73;;;931.50;;
11955;SDS011;6038;52.276;10.530;2023-08-07T10:46:02;1078.67;;;992.97;;
11955;SDS011;6038;52.276;10.530;2023-08-07T10:48:29;1002.47;;;925.10;;
11955;SDS011;6038;52.276;10.530;2023-08-07T10:53:31;1157.73;;;999.90;;
11955;SDS011;6038;52.276;10.530;2023-08-07T10:55:58;1168.63;;;999.90;;
11955;SDS011;6038;52.276;10.530;2023-08-07T10:58:31;1136.83;;;999.90;;
11955;SDS011;6038;52.276;10.530;2023-08-07T11:03:43;1125.67;;;999.90;;
11955;SDS011;6038;52.276;10.530;2023-08-07T11:06:10;1149.03;;;999.90;;
11955;SDS011;6038;52.276;10.530;2023-08-07T11:08:36;1110.10;;;999.90;;
11955;SDS011;6038;52.276;10.530;2023-08-07T11:11:04;1128.07;;;999.90;;
11955;SDS011;6038;52.276;10.530;2023-08-07T11:13:31;1107.13;;;999.90;;
11955;SDS011;6038;52.276;10.530;2023-08-07T11:15:57;1137.17;;;999.90;;
11955;SDS011;6038;52.276;10.530;2023-08-07T11:18:24;1116.93;;;999.90;;
11955;SDS011;6038;52.276;10.530;2023-08-07T11:20:50;1119.37;;;999.90;;
11955;SDS011;6038;52.276;10.530;2023-08-07T11:23:22;1102.63;;;999.90;;
11955;SDS011;6038;52.276;10.530;2023-08-07T11:25:48;1143.13;;;999.90;;
11955;SDS011;6038;52.276;10.530;2023-08-07T11:28:17;1124.80;;;999.90;;
11955;SDS011;6038;52.276;10.530;2023-08-07T11:30:43;1169.67;;;999.90;;
11955;SDS011;6038;52.276;10.530;2023-08-07T11:33:09;1151.70;;;999.90;;
11955;SDS011;6038;52.276;10.530;2023-08-07T11:35:40;1237.73;;;999.90;;
11955;SDS011;6038;52.276;10.530;2023-08-07T11:38:06;1251.37;;;999.90;;
11955;SDS011;6038;52.276;10.530;2023-08-07T11:40:32;1268.03;;;999.90;;
11955;SDS011;6038;52.276;10.530;2023-08-07T11:42:58;1217.03;;;999.90;;
11955;SDS011;6038;52.276;10.530;2023-08-07T11:45:24;1208.60;;;999.90;;
11955;SDS011;6038;52.276;10.530;2023-08-07T11:47:50;1237.60;;;999.90;;
11955;SDS011;6038;52.276;10.530;2023-08-07T11:50:16;1173.07;;;999.90;;
11955;SDS011;6038;52.276;10.530;2023-08-07T11:52:42;1185.90;;;999.90;;
11955;SDS011;6038;52.276;10.530;2023-08-07T11:55:08;1187.13;;;999.90;;
11955;SDS011;6038;52.276;10.530;2023-08-07T11:57:37;1178.87;;;999.90;;
11955;SDS011;6038;52.276;10.530;2023-08-07T12:00:07;1141.10;;;999.90;;
11955;SDS011;6038;52.276;10.530;2023-08-07T12:02:42;1143.57;;;999.90;;
11955;SDS011;6038;52.276;10.530;2023-08-07T12:05:09;1143.23;;;999.90;;
11955;SDS011;6038;52.276;10.530;2023-08-07T12:07:38;1166.83;;;999.90;;
11955;SDS011;6038;52.276;10.530;2023-08-07T12:10:07;1173.00;;;999.90;;
11955;SDS011;6038;52.276;10.530;2023-08-07T12:12:37;1137.63;;;999.90;;
11955;SDS011;6038;52.276;10.530;2023-08-07T12:15:07;1143.30;;;999.90;;
11955;SDS011;6038;52.276;10.530;2023-08-07T12:17:33;1202.47;;;999.90;;
11955;SDS011;6038;52.276;10.530;2023-08-07T12:19:59;1143.80;;;999.90;;
11955;SDS011;6038;52.276;10.530;2023-08-07T12:22:27;1235.00;;;999.90;;
11955;SDS011;6038;52.276;10.530;2023-08-07T12:24:56;1127.10;;;999.90;;
11955;SDS011;6038;52.276;10.530;2023-08-07T12:27:22;1276.37;;;999.90;;
11955;SDS011;6038;52.276;10.530;2023-08-07T12:29:48;1299.50;;;999.90;;
11955;SDS011;6038;52.276;10.530;2023-08-07T12:32:14;1257.07;;;999.90;;
11955;SDS011;6038;52.276;10.530;2023-08-07T12:34:40;1228.73;;;999.90;;
11955;SDS011;6038;52.276;10.530;2023-08-07T12:37:06;1237.70;;;999.90;;
11955;SDS011;6038;52.276;10.530;2023-08-07T12:39:32;1129.60;;;999.90;;
11955;SDS011;6038;52.276;10.530;2023-08-07T12:41:58;1218.63;;;999.90;;
11955;SDS011;6038;52.276;10.530;2023-08-07T12:44:24;1301.87;;;999.90;;
11955;SDS011;6038;52.276;10.530;2023-08-07T12:46:51;1260.97;;;999.90;;
11955;SDS011;6038;52.276;10.530;2023-08-07T12:49:17;1083.80;;;999.83;;
11955;SDS011;6038;52.276;10.530;2023-08-07T12:51:44;1136.53;;;999.90;;
11955;SDS011;6038;52.276;10.530;2023-08-07T12:54:10;857.33;;;787.53;;
11955;SDS011;6038;52.276;10.530;2023-08-07T12:56:36;891.70;;;821.63;;
11955;SDS011;6038;52.276;10.530;2023-08-07T12:59:02;896.97;;;826.60;;
11955;SDS011;6038;52.276;10.530;2023-08-07T13:01:28;833.47;;;763.90;;
11955;SDS011;6038;52.276;10.530;2023-08-07T13:03:54;815.43;;;745.67;;
11955;SDS011;6038;52.276;10.530;2023-08-07T13:06:20;896.90;;;826.23;;
11955;SDS011;6038;52.276;10.530;2023-08-07T13:08:46;873.10;;;802.83;;
11955;SDS011;6038;52.276;10.530;2023-08-07T13:11:12;891.97;;;819.23;;
11955;SDS011;6038;52.276;10.530;2023-08-07T13:13:38;892.80;;;819.00;;
11955;SDS011;6038;52.276;10.530;2023-08-07T13:16:05;925.97;;;850.63;;
11955;SDS011;6038;52.276;10.530;2023-08-07T13:18:31;952.83;;;876.20;;
11955;SDS011;6038;52.276;10.530;2023-08-07T13:20:57;1114.63;;;999.90;;
11955;SDS011;6038;52.276;10.530;2023-08-07T13:23:23;1298.83;;;999.90;;
11955;SDS011;6038;52.276;10.530;2023-08-07T13:25:49;1288.70;;;999.90;;
11955;SDS011;6038;52.276;10.530;2023-08-07T13:28:15;990.17;;;915.60;;
11955;SDS011;6038;52.276;10.530;2023-08-07T13:30:43;1066.20;;;988.47;;
11955;SDS011;6038;52.276;10.530;2023-08-07T13:33:09;1109.10;;;999.90;;
11955;SDS011;6038;52.276;10.530;2023-08-07T13:35:35;1107.13;;;999.90;;
11955;SDS011;6038;52.276;10.530;2023-08-07T13:38:02;929.00;;;856.80;;
11955;SDS011;6038;52.276;10.530;2023-08-07T13:40:30;870.87;;;798.90;;
11955;SDS011;6038;52.276;10.530;2023-08-07T13:42:57;905.53;;;833.37;;
11955;SDS011;6038;52.276;10.530;2023-08-07T13:45:24;938.23;;;865.83;;
11955;SDS011;6038;52.276;10.530;2023-08-07T13:47:50;929.30;;;855.60;;
11955;SDS011;6038;52.276;10.530;2023-08-07T13:50:16;906.73;;;833.63;;
11955;SDS011;6038;52.276;10.530;2023-08-07T13:52:42;894.47;;;822.40;;
11955;SDS011;6038;52.276;10.530;2023-08-07T13:55:08;931.97;;;859.30;;
11955;SDS011;6038;52.276;10.530;2023-08-07T13:57:34;892.73;;;821.60;;
11955;SDS011;6038;52.276;10.530;2023-08-07T14:00:00;854.93;;;784.83;;